<?xml version="1.0" encoding="UTF-8"?>
<gpx version="1.1" creator="2bulu-scraper" xmlns="http://www.topografix.com/GPX/1/1">
  <metadata><name>贵州疣螈（马背梁子、倒车坝）</name><desc>source: 2bulu.com trackId=87084562; exported 2026-09-01T18:37:08.627Z</desc>
    <bounds minlat="27.8023875" minlon="104.3147369" maxlat="27.8180346" maxlon="104.3277271"/>
    <link href="https://www.2bulu.com/track/t-gJX8hkLvGcvp%252FR2KBg5Tzw%253D%253D.htm"><text>2bulu 源页面</text></link>
  </metadata>
  <wpt lat="27.8179933" lon="104.3222733"><ele>2199</ele><name>无水塘、贵州疣螈
        </name></wpt>
  <wpt lat="27.8179933" lon="104.3222733"><ele>2199</ele><name>生境
        </name></wpt>
  <wpt lat="27.8179983" lon="104.32222"><ele>2206</ele><name>
        </name></wpt>
  <wpt lat="27.8179983" lon="104.32222"><ele>2206</ele><name>
        </name></wpt>
  <wpt lat="27.8155067" lon="104.3257667"><ele>2191</ele><name>
        </name></wpt>
  <wpt lat="27.8155067" lon="104.3257667"><ele>2191</ele><name>
        </name></wpt>
  <wpt lat="27.8155583" lon="104.32578"><ele>2193</ele><name>无水塘、贵州疣螈
        </name></wpt>
  <wpt lat="27.8155583" lon="104.32578"><ele>2193</ele><name>
        </name></wpt>
  <wpt lat="27.812125" lon="104.3271417"><ele>2162</ele><name>工作照
        </name></wpt>
  <wpt lat="27.812125" lon="104.3271417"><ele>2162</ele><name>
        </name></wpt>
  <wpt lat="27.812125" lon="104.3271417"><ele>2162</ele><name>
        </name></wpt>
  <wpt lat="27.812125" lon="104.3271417"><ele>2162</ele><name>生境（无水塘）无贵州疣螈
        </name></wpt>
  <wpt lat="27.805447" lon="104.3270394"><ele>2080</ele><name>鸡屎
        </name></wpt>
  <wpt lat="27.8054033" lon="104.327005"><ele>2076</ele><name>
        </name></wpt>
  <wpt lat="27.804595" lon="104.326315"><ele>2041</ele><name>
        </name></wpt>
  <wpt lat="27.804595" lon="104.326315"><ele>2041</ele><name>
        </name></wpt>
  <wpt lat="27.804595" lon="104.326315"><ele>2041</ele><name>生境（无水塘）无贵州疣螈
        </name></wpt>
  <wpt lat="27.804595" lon="104.326315"><ele>2041</ele><name>
        </name></wpt>
  <wpt lat="27.8044017" lon="104.3149333"><ele>1995</ele><name>
        </name></wpt>
  <wpt lat="27.8044017" lon="104.3149333"><ele>1995</ele><name>
        </name></wpt>
  <wpt lat="27.8044017" lon="104.3149333"><ele>1995</ele><name>生境（无水塘）无贵州疣螈
        </name></wpt>
  <wpt lat="27.8055072" lon="104.3148455"><ele>2000</ele><name>
        </name></wpt>
  <wpt lat="27.8068034" lon="104.3152317"><ele>2000</ele><name>生境（泥炭藓）无贵州疣螈
        </name></wpt>
  <wpt lat="27.806795" lon="104.3151383"><ele>2004</ele><name>
        </name></wpt>
  <wpt lat="27.806795" lon="104.3151383"><ele>2004</ele><name>
        </name></wpt>
  <wpt lat="27.806795" lon="104.3151383"><ele>2004</ele><name>
        </name></wpt>
  <trk><name>贵州疣螈（马背梁子、倒车坝）</name>
      <trkseg>
        <trkpt lat="27.8039717" lon="104.3257967"><ele>2033.2</ele><time>2026-07-13T18:19:32.000Z</time></trkpt>
        <trkpt lat="27.804041" lon="104.325856"><ele>2033.2</ele><time>2026-07-13T18:19:42.000Z</time></trkpt>
        <trkpt lat="27.8041339" lon="104.3258958"><ele>2034.92</ele><time>2026-07-13T18:19:56.000Z</time></trkpt>
        <trkpt lat="27.8042396" lon="104.3259169"><ele>2037.02</ele><time>2026-07-13T18:20:06.000Z</time></trkpt>
        <trkpt lat="27.8043445" lon="104.325948"><ele>2036.11</ele><time>2026-07-13T18:20:19.000Z</time></trkpt>
        <trkpt lat="27.8044382" lon="104.3259966"><ele>2034.25</ele><time>2026-07-13T18:20:30.000Z</time></trkpt>
        <trkpt lat="27.8045117" lon="104.3260693"><ele>2032.73</ele><time>2026-07-13T18:20:42.000Z</time></trkpt>
        <trkpt lat="27.8045626" lon="104.3261575"><ele>2031.64</ele><time>2026-07-13T18:20:52.000Z</time></trkpt>
        <trkpt lat="27.8046103" lon="104.3262597"><ele>2031.79</ele><time>2026-07-13T18:21:08.000Z</time></trkpt>
        <trkpt lat="27.8046497" lon="104.3263626"><ele>2033.04</ele><time>2026-07-13T18:21:22.000Z</time></trkpt>
        <trkpt lat="27.8047049" lon="104.3264453"><ele>2035.52</ele><time>2026-07-13T18:21:40.000Z</time></trkpt>
        <trkpt lat="27.8047618" lon="104.3265247"><ele>2037.96</ele><time>2026-07-13T18:21:58.000Z</time></trkpt>
        <trkpt lat="27.8048191" lon="104.326606"><ele>2039.87</ele><time>2026-07-13T18:22:18.000Z</time></trkpt>
        <trkpt lat="27.8048386" lon="104.3267072"><ele>2041.95</ele><time>2026-07-13T18:22:38.000Z</time></trkpt>
        <trkpt lat="27.8048718" lon="104.3268047"><ele>2044.21</ele><time>2026-07-13T18:23:00.000Z</time></trkpt>
        <trkpt lat="27.8049521" lon="104.3268484"><ele>2047.73</ele><time>2026-07-13T18:23:22.000Z</time></trkpt>
        <trkpt lat="27.8050473" lon="104.3268584"><ele>2052.28</ele><time>2026-07-13T18:23:42.000Z</time></trkpt>
        <trkpt lat="27.8051493" lon="104.3268388"><ele>2056.16</ele><time>2026-07-13T18:24:12.000Z</time></trkpt>
        <trkpt lat="27.8052455" lon="104.3268329"><ele>2058.41</ele><time>2026-07-13T18:24:34.000Z</time></trkpt>
        <trkpt lat="27.8053155" lon="104.3268944"><ele>2060.56</ele><time>2026-07-13T18:25:10.000Z</time></trkpt>
        <trkpt lat="27.805393" lon="104.3269514"><ele>2062.9</ele><time>2026-07-13T18:25:32.000Z</time></trkpt>
        <trkpt lat="27.8054706" lon="104.3270125"><ele>2064.53</ele><time>2026-07-13T18:26:04.000Z</time></trkpt>
        <trkpt lat="27.8055624" lon="104.3270635"><ele>2067.27</ele><time>2026-07-13T18:26:30.000Z</time></trkpt>
        <trkpt lat="27.805648" lon="104.3271137"><ele>2071.11</ele><time>2026-07-13T18:26:54.000Z</time></trkpt>
        <trkpt lat="27.8057421" lon="104.3271361"><ele>2073.86</ele><time>2026-07-13T18:27:12.000Z</time></trkpt>
        <trkpt lat="27.8058366" lon="104.3271634"><ele>2075.94</ele><time>2026-07-13T18:27:30.000Z</time></trkpt>
        <trkpt lat="27.8059359" lon="104.3271777"><ele>2078.03</ele><time>2026-07-13T18:27:48.000Z</time></trkpt>
        <trkpt lat="27.806034" lon="104.3271767"><ele>2080.17</ele><time>2026-07-13T18:28:06.000Z</time></trkpt>
        <trkpt lat="27.8061302" lon="104.3271797"><ele>2082.42</ele><time>2026-07-13T18:28:28.000Z</time></trkpt>
        <trkpt lat="27.8062291" lon="104.3271556"><ele>2085.21</ele><time>2026-07-13T18:28:48.000Z</time></trkpt>
        <trkpt lat="27.8063204" lon="104.3271747"><ele>2088.39</ele><time>2026-07-13T18:29:06.000Z</time></trkpt>
        <trkpt lat="27.8064025" lon="104.3271436"><ele>2090.33</ele><time>2026-07-13T18:29:24.000Z</time></trkpt>
        <trkpt lat="27.8064891" lon="104.3271092"><ele>2091.13</ele><time>2026-07-13T18:29:44.000Z</time></trkpt>
        <trkpt lat="27.8065817" lon="104.3270992"><ele>2093.27</ele><time>2026-07-13T18:30:06.000Z</time></trkpt>
        <trkpt lat="27.8066679" lon="104.327137"><ele>2095.65</ele><time>2026-07-13T18:30:30.000Z</time></trkpt>
        <trkpt lat="27.8067578" lon="104.327149"><ele>2098.08</ele><time>2026-07-13T18:30:48.000Z</time></trkpt>
        <trkpt lat="27.806853" lon="104.3271661"><ele>2099.55</ele><time>2026-07-13T18:31:04.000Z</time></trkpt>
        <trkpt lat="27.806955" lon="104.3271812"><ele>2099.66</ele><time>2026-07-13T18:31:22.000Z</time></trkpt>
        <trkpt lat="27.8070479" lon="104.3272164"><ele>2100.54</ele><time>2026-07-13T18:31:36.000Z</time></trkpt>
        <trkpt lat="27.8071682" lon="104.3272714"><ele>2101.81</ele><time>2026-07-13T18:32:10.000Z</time></trkpt>
        <trkpt lat="27.80727" lon="104.327285"><ele>2103.57</ele><time>2026-07-13T18:32:30.000Z</time></trkpt>
        <trkpt lat="27.8074133" lon="104.3273067"><ele>2105.09</ele><time>2026-07-13T18:33:34.000Z</time></trkpt>
        <trkpt lat="27.8075033" lon="104.327265"><ele>2106.3</ele><time>2026-07-13T18:34:22.000Z</time></trkpt>
        <trkpt lat="27.8075947" lon="104.3272769"><ele>2108.75</ele><time>2026-07-13T18:34:38.000Z</time></trkpt>
        <trkpt lat="27.8076877" lon="104.3272855"><ele>2110.11</ele><time>2026-07-13T18:34:54.000Z</time></trkpt>
        <trkpt lat="27.8077736" lon="104.3273233"><ele>2110.32</ele><time>2026-07-13T18:35:21.000Z</time></trkpt>
        <trkpt lat="27.8078633" lon="104.3273083"><ele>2109.58</ele><time>2026-07-13T18:36:22.000Z</time></trkpt>
        <trkpt lat="27.80796" lon="104.3273283"><ele>2106.71</ele><time>2026-07-13T18:36:40.000Z</time></trkpt>
        <trkpt lat="27.8080468" lon="104.3273723"><ele>2104.85</ele><time>2026-07-13T18:36:54.000Z</time></trkpt>
        <trkpt lat="27.8081344" lon="104.327418"><ele>2104.4</ele><time>2026-07-13T18:37:08.000Z</time></trkpt>
        <trkpt lat="27.8082185" lon="104.327473"><ele>2105.22</ele><time>2026-07-13T18:37:24.000Z</time></trkpt>
        <trkpt lat="27.8082976" lon="104.3275324"><ele>2106.37</ele><time>2026-07-13T18:37:50.000Z</time></trkpt>
        <trkpt lat="27.8083827" lon="104.3275699"><ele>2107.46</ele><time>2026-07-13T18:38:12.000Z</time></trkpt>
        <trkpt lat="27.8084492" lon="104.3276439"><ele>2109.76</ele><time>2026-07-13T18:38:36.000Z</time></trkpt>
        <trkpt lat="27.80853" lon="104.3276957"><ele>2112.61</ele><time>2026-07-13T18:38:56.000Z</time></trkpt>
        <trkpt lat="27.8086271" lon="104.3276877"><ele>2116.05</ele><time>2026-07-13T18:39:16.000Z</time></trkpt>
        <trkpt lat="27.808721" lon="104.327677"><ele>2119.73</ele><time>2026-07-13T18:39:36.000Z</time></trkpt>
        <trkpt lat="27.8088204" lon="104.3276689"><ele>2122.81</ele><time>2026-07-13T18:39:56.000Z</time></trkpt>
        <trkpt lat="27.808915" lon="104.3276699"><ele>2123.8</ele><time>2026-07-13T18:40:12.000Z</time></trkpt>
        <trkpt lat="27.8090161" lon="104.3276727"><ele>2124.14</ele><time>2026-07-13T18:40:30.000Z</time></trkpt>
        <trkpt lat="27.8090997" lon="104.3276298"><ele>2125.33</ele><time>2026-07-13T18:40:46.000Z</time></trkpt>
        <trkpt lat="27.8091889" lon="104.3276189"><ele>2125.96</ele><time>2026-07-13T18:41:02.000Z</time></trkpt>
        <trkpt lat="27.809286" lon="104.3276285"><ele>2127.35</ele><time>2026-07-13T18:41:28.000Z</time></trkpt>
        <trkpt lat="27.8093811" lon="104.3276275"><ele>2128.06</ele><time>2026-07-13T18:41:48.000Z</time></trkpt>
        <trkpt lat="27.8094713" lon="104.32761"><ele>2129.33</ele><time>2026-07-13T18:42:06.000Z</time></trkpt>
        <trkpt lat="27.8095634" lon="104.3276076"><ele>2130.3</ele><time>2026-07-13T18:42:24.000Z</time></trkpt>
        <trkpt lat="27.8096627" lon="104.3276016"><ele>2131.85</ele><time>2026-07-13T18:42:50.000Z</time></trkpt>
        <trkpt lat="27.8097583" lon="104.3276189"><ele>2134.02</ele><time>2026-07-13T18:43:12.000Z</time></trkpt>
        <trkpt lat="27.8098572" lon="104.3276159"><ele>2135.6</ele><time>2026-07-13T18:43:32.000Z</time></trkpt>
        <trkpt lat="27.8099523" lon="104.3275855"><ele>2137.67</ele><time>2026-07-13T18:43:50.000Z</time></trkpt>
        <trkpt lat="27.8100446" lon="104.327573"><ele>2139.32</ele><time>2026-07-13T18:44:22.000Z</time></trkpt>
        <trkpt lat="27.8101385" lon="104.3275662"><ele>2140.86</ele><time>2026-07-13T18:44:32.000Z</time></trkpt>
        <trkpt lat="27.8102319" lon="104.327549"><ele>2141.87</ele><time>2026-07-13T18:44:44.000Z</time></trkpt>
        <trkpt lat="27.810344" lon="104.3275477"><ele>2143.3</ele><time>2026-07-13T18:45:12.000Z</time></trkpt>
        <trkpt lat="27.8104428" lon="104.327555"><ele>2144.63</ele><time>2026-07-13T18:45:24.000Z</time></trkpt>
        <trkpt lat="27.8105384" lon="104.3275273"><ele>2145.95</ele><time>2026-07-13T18:45:38.000Z</time></trkpt>
        <trkpt lat="27.8106229" lon="104.3274809"><ele>2147.48</ele><time>2026-07-13T18:45:52.000Z</time></trkpt>
        <trkpt lat="27.8107137" lon="104.3274768"><ele>2148.35</ele><time>2026-07-13T18:46:10.000Z</time></trkpt>
        <trkpt lat="27.8108038" lon="104.3274837"><ele>2149.62</ele><time>2026-07-13T18:46:22.000Z</time></trkpt>
        <trkpt lat="27.8109024" lon="104.3274845"><ele>2150.26</ele><time>2026-07-13T18:46:44.000Z</time></trkpt>
        <trkpt lat="27.810998" lon="104.3274842"><ele>2150.79</ele><time>2026-07-13T18:46:58.000Z</time></trkpt>
        <trkpt lat="27.811102" lon="104.3274919"><ele>2151.44</ele><time>2026-07-13T18:47:18.000Z</time></trkpt>
        <trkpt lat="27.8111991" lon="104.3274924"><ele>2152.11</ele><time>2026-07-13T18:47:30.000Z</time></trkpt>
        <trkpt lat="27.8112968" lon="104.3274773"><ele>2153.35</ele><time>2026-07-13T18:47:46.000Z</time></trkpt>
        <trkpt lat="27.811395" lon="104.3274865"><ele>2153.8</ele><time>2026-07-13T18:48:00.000Z</time></trkpt>
        <trkpt lat="27.8114832" lon="104.3274568"><ele>2153.97</ele><time>2026-07-13T18:48:14.000Z</time></trkpt>
        <trkpt lat="27.8115717" lon="104.3274283"><ele>2153.9</ele><time>2026-07-13T18:48:30.000Z</time></trkpt>
        <trkpt lat="27.8116682" lon="104.3273995"><ele>2153.77</ele><time>2026-07-13T18:48:50.000Z</time></trkpt>
        <trkpt lat="27.8117492" lon="104.3273412"><ele>2153.87</ele><time>2026-07-13T18:49:04.000Z</time></trkpt>
        <trkpt lat="27.8118305" lon="104.3272689"><ele>2154.66</ele><time>2026-07-13T18:49:18.000Z</time></trkpt>
        <trkpt lat="27.8119113" lon="104.3271984"><ele>2155.92</ele><time>2026-07-13T18:49:36.000Z</time></trkpt>
        <trkpt lat="27.8119973" lon="104.327149"><ele>2156.04</ele><time>2026-07-13T18:49:50.000Z</time></trkpt>
        <trkpt lat="27.8120829" lon="104.3271019"><ele>2157.14</ele><time>2026-07-13T18:50:10.000Z</time></trkpt>
        <trkpt lat="27.8121707" lon="104.3270487"><ele>2158.67</ele><time>2026-07-13T18:50:24.000Z</time></trkpt>
        <trkpt lat="27.8122593" lon="104.3270141"><ele>2159.46</ele><time>2026-07-13T18:50:36.000Z</time></trkpt>
        <trkpt lat="27.8123492" lon="104.3269775"><ele>2159.09</ele><time>2026-07-13T18:50:50.000Z</time></trkpt>
        <trkpt lat="27.8124419" lon="104.3269618"><ele>2158.53</ele><time>2026-07-13T18:51:16.000Z</time></trkpt>
        <trkpt lat="27.8125394" lon="104.3269658"><ele>2158.78</ele><time>2026-07-13T18:51:32.000Z</time></trkpt>
        <trkpt lat="27.8126395" lon="104.3269844"><ele>2158.87</ele><time>2026-07-13T18:51:46.000Z</time></trkpt>
        <trkpt lat="27.8127353" lon="104.327014"><ele>2159.4</ele><time>2026-07-13T18:52:00.000Z</time></trkpt>
        <trkpt lat="27.8128304" lon="104.3270147"><ele>2159.96</ele><time>2026-07-13T18:52:16.000Z</time></trkpt>
        <trkpt lat="27.8129278" lon="104.3270194"><ele>2160.62</ele><time>2026-07-13T18:52:34.000Z</time></trkpt>
        <trkpt lat="27.8130298" lon="104.3270115"><ele>2160.78</ele><time>2026-07-13T18:52:50.000Z</time></trkpt>
        <trkpt lat="27.813136" lon="104.3269815"><ele>2161.87</ele><time>2026-07-13T18:53:10.000Z</time></trkpt>
        <trkpt lat="27.8132321" lon="104.3269731"><ele>2162.27</ele><time>2026-07-13T18:53:20.000Z</time></trkpt>
        <trkpt lat="27.8133279" lon="104.3269892"><ele>2162.63</ele><time>2026-07-13T18:53:42.000Z</time></trkpt>
        <trkpt lat="27.8134226" lon="104.3269952"><ele>2163.6</ele><time>2026-07-13T18:54:02.000Z</time></trkpt>
        <trkpt lat="27.8135022" lon="104.3269358"><ele>2164.08</ele><time>2026-07-13T18:54:16.000Z</time></trkpt>
        <trkpt lat="27.8135739" lon="104.3268574"><ele>2164.86</ele><time>2026-07-13T18:54:32.000Z</time></trkpt>
        <trkpt lat="27.8136561" lon="104.3268017"><ele>2165.48</ele><time>2026-07-13T18:54:48.000Z</time></trkpt>
        <trkpt lat="27.8137469" lon="104.3267559"><ele>2165.83</ele><time>2026-07-13T18:55:00.000Z</time></trkpt>
        <trkpt lat="27.8138382" lon="104.3267354"><ele>2166.59</ele><time>2026-07-13T18:55:14.000Z</time></trkpt>
        <trkpt lat="27.8139304" lon="104.3267412"><ele>2167.11</ele><time>2026-07-13T18:55:32.000Z</time></trkpt>
        <trkpt lat="27.8140367" lon="104.3267467"><ele>2167.71</ele><time>2026-07-13T18:56:50.000Z</time></trkpt>
        <trkpt lat="27.8141317" lon="104.3267517"><ele>2169.12</ele><time>2026-07-13T18:57:36.000Z</time></trkpt>
        <trkpt lat="27.8142267" lon="104.3267679"><ele>2170.23</ele><time>2026-07-13T18:57:48.000Z</time></trkpt>
        <trkpt lat="27.8143242" lon="104.3267811"><ele>2170.82</ele><time>2026-07-13T18:58:33.000Z</time></trkpt>
        <trkpt lat="27.8144364" lon="104.3267895"><ele>2171.93</ele><time>2026-07-13T18:58:44.000Z</time></trkpt>
        <trkpt lat="27.8145275" lon="104.3267575"><ele>2171.83</ele><time>2026-07-13T18:58:56.000Z</time></trkpt>
        <trkpt lat="27.8146175" lon="104.3267182"><ele>2172.42</ele><time>2026-07-13T18:59:10.000Z</time></trkpt>
        <trkpt lat="27.8146979" lon="104.3266636"><ele>2173.23</ele><time>2026-07-13T18:59:22.000Z</time></trkpt>
        <trkpt lat="27.8147776" lon="104.3266089"><ele>2174.29</ele><time>2026-07-13T18:59:38.000Z</time></trkpt>
        <trkpt lat="27.8148529" lon="104.3265507"><ele>2174.55</ele><time>2026-07-13T18:59:50.000Z</time></trkpt>
        <trkpt lat="27.8149357" lon="104.326506"><ele>2175.05</ele><time>2026-07-13T19:00:04.000Z</time></trkpt>
        <trkpt lat="27.8150268" lon="104.3264569"><ele>2175.63</ele><time>2026-07-13T19:00:20.000Z</time></trkpt>
        <trkpt lat="27.8150781" lon="104.3263645"><ele>2176.61</ele><time>2026-07-13T19:00:36.000Z</time></trkpt>
        <trkpt lat="27.8151294" lon="104.32627"><ele>2177.81</ele><time>2026-07-13T19:00:48.000Z</time></trkpt>
        <trkpt lat="27.8151713" lon="104.3261747"><ele>2178.23</ele><time>2026-07-13T19:01:02.000Z</time></trkpt>
        <trkpt lat="27.8152121" lon="104.3260755"><ele>2179.17</ele><time>2026-07-13T19:01:18.000Z</time></trkpt>
        <trkpt lat="27.8152685" lon="104.3259918"><ele>2180.21</ele><time>2026-07-13T19:01:34.000Z</time></trkpt>
        <trkpt lat="27.8153162" lon="104.3258983"><ele>2181.28</ele><time>2026-07-13T19:01:54.000Z</time></trkpt>
        <trkpt lat="27.8153815" lon="104.3258143"><ele>2181.29</ele><time>2026-07-13T19:02:10.000Z</time></trkpt>
        <trkpt lat="27.8154559" lon="104.3257417"><ele>2181.72</ele><time>2026-07-13T19:02:28.000Z</time></trkpt>
        <trkpt lat="27.8155353" lon="104.325664"><ele>2181.93</ele><time>2026-07-13T19:02:46.000Z</time></trkpt>
        <trkpt lat="27.8155968" lon="104.3255787"><ele>2181.87</ele><time>2026-07-13T19:03:12.000Z</time></trkpt>
        <trkpt lat="27.8156785" lon="104.3254691"><ele>2182.49</ele><time>2026-07-13T19:04:08.000Z</time></trkpt>
        <trkpt lat="27.8157118" lon="104.3253585"><ele>2184.77</ele><time>2026-07-13T19:04:34.000Z</time></trkpt>
        <trkpt lat="27.8157604" lon="104.3252691"><ele>2185.82</ele><time>2026-07-13T19:04:54.000Z</time></trkpt>
        <trkpt lat="27.8157993" lon="104.3251732"><ele>2185.47</ele><time>2026-07-13T19:05:08.000Z</time></trkpt>
        <trkpt lat="27.8158601" lon="104.3250943"><ele>2185.22</ele><time>2026-07-13T19:05:38.000Z</time></trkpt>
        <trkpt lat="27.815917" lon="104.3250116"><ele>2184.48</ele><time>2026-07-13T19:05:52.000Z</time></trkpt>
        <trkpt lat="27.8159917" lon="104.32495"><ele>2186.04</ele><time>2026-07-13T19:10:34.000Z</time></trkpt>
        <trkpt lat="27.8160167" lon="104.32485"><ele>2188.04</ele><time>2026-07-13T19:10:52.000Z</time></trkpt>
        <trkpt lat="27.816036" lon="104.3247458"><ele>2188.45</ele><time>2026-07-13T19:11:02.000Z</time></trkpt>
        <trkpt lat="27.8160595" lon="104.3246073"><ele>2188.73</ele><time>2026-07-13T19:11:52.000Z</time></trkpt>
        <trkpt lat="27.8161069" lon="104.3244733"><ele>2188.93</ele><time>2026-07-13T19:12:44.000Z</time></trkpt>
        <trkpt lat="27.8161815" lon="104.3243943"><ele>2188.75</ele><time>2026-07-13T19:13:04.000Z</time></trkpt>
        <trkpt lat="27.8162612" lon="104.3243364"><ele>2188.38</ele><time>2026-07-13T19:13:18.000Z</time></trkpt>
        <trkpt lat="27.8163279" lon="104.3242673"><ele>2187.49</ele><time>2026-07-13T19:13:32.000Z</time></trkpt>
        <trkpt lat="27.8164073" lon="104.3242078"><ele>2186.8</ele><time>2026-07-13T19:13:50.000Z</time></trkpt>
        <trkpt lat="27.8164949" lon="104.3241624"><ele>2186.2</ele><time>2026-07-13T19:14:08.000Z</time></trkpt>
        <trkpt lat="27.8165811" lon="104.3240887"><ele>2185.81</ele><time>2026-07-13T19:14:52.000Z</time></trkpt>
        <trkpt lat="27.8166722" lon="104.324061"><ele>2184.82</ele><time>2026-07-13T19:15:14.000Z</time></trkpt>
        <trkpt lat="27.8167397" lon="104.3239921"><ele>2183.61</ele><time>2026-07-13T19:15:32.000Z</time></trkpt>
        <trkpt lat="27.8167793" lon="104.3239011"><ele>2182.18</ele><time>2026-07-13T19:15:42.000Z</time></trkpt>
        <trkpt lat="27.8168473" lon="104.3238457"><ele>2182.28</ele><time>2026-07-13T19:16:10.000Z</time></trkpt>
        <trkpt lat="27.8168683" lon="104.3237233"><ele>2183.19</ele><time>2026-07-13T19:27:16.000Z</time></trkpt>
        <trkpt lat="27.8168617" lon="104.3236217"><ele>2184.87</ele><time>2026-07-13T19:27:24.000Z</time></trkpt>
        <trkpt lat="27.8168832" lon="104.3236977"><ele>2186</ele><time>2026-07-13T19:28:12.000Z</time></trkpt>
        <trkpt lat="27.8169573" lon="104.3236765"><ele>2185.83</ele><time>2026-07-13T19:28:50.000Z</time></trkpt>
        <trkpt lat="27.8170631" lon="104.3236422"><ele>2186.12</ele><time>2026-07-13T19:29:38.000Z</time></trkpt>
        <trkpt lat="27.8171958" lon="104.3235811"><ele>2187.27</ele><time>2026-07-13T19:30:22.000Z</time></trkpt>
        <trkpt lat="27.81728" lon="104.3234988"><ele>2188.62</ele><time>2026-07-13T19:30:38.000Z</time></trkpt>
        <trkpt lat="27.8173793" lon="104.3234121"><ele>2190.24</ele><time>2026-07-13T19:31:32.000Z</time></trkpt>
        <trkpt lat="27.8174261" lon="104.3233136"><ele>2194.4</ele><time>2026-07-13T19:31:50.000Z</time></trkpt>
        <trkpt lat="27.8174571" lon="104.3232047"><ele>2195.99</ele><time>2026-07-13T19:32:20.000Z</time></trkpt>
        <trkpt lat="27.8174775" lon="104.3230984"><ele>2197.37</ele><time>2026-07-13T19:32:44.000Z</time></trkpt>
        <trkpt lat="27.8175238" lon="104.3229894"><ele>2198.98</ele><time>2026-07-13T19:33:14.000Z</time></trkpt>
        <trkpt lat="27.8175927" lon="104.3229075"><ele>2198.38</ele><time>2026-07-13T19:33:30.000Z</time></trkpt>
        <trkpt lat="27.8176656" lon="104.3228259"><ele>2197.44</ele><time>2026-07-13T19:33:56.000Z</time></trkpt>
        <trkpt lat="27.8177297" lon="104.3227244"><ele>2197</ele><time>2026-07-13T19:34:28.000Z</time></trkpt>
        <trkpt lat="27.8178058" lon="104.3226175"><ele>2197.17</ele><time>2026-07-13T19:35:02.000Z</time></trkpt>
        <trkpt lat="27.8178726" lon="104.3225206"><ele>2198.04</ele><time>2026-07-13T19:35:24.000Z</time></trkpt>
        <trkpt lat="27.8179051" lon="104.3224142"><ele>2197.94</ele><time>2026-07-13T19:35:44.000Z</time></trkpt>
        <trkpt lat="27.8179704" lon="104.3223493"><ele>2199</ele><time>2026-07-13T19:36:24.000Z</time></trkpt>
        <trkpt lat="27.8180346" lon="104.3222799"><ele>2200.5</ele><time>2026-07-13T19:36:58.000Z</time></trkpt>
        <trkpt lat="27.81797" lon="104.3223533"><ele>2199.25</ele><time>2026-07-13T19:45:25.000Z</time></trkpt>
        <trkpt lat="27.81791" lon="104.32243"><ele>2198.72</ele><time>2026-07-13T19:45:53.000Z</time></trkpt>
        <trkpt lat="27.817826" lon="104.3225899"><ele>2199.05</ele><time>2026-07-13T19:46:41.000Z</time></trkpt>
        <trkpt lat="27.817743" lon="104.3226628"><ele>2199.03</ele><time>2026-07-13T19:46:59.000Z</time></trkpt>
        <trkpt lat="27.8176688" lon="104.3227492"><ele>2199.45</ele><time>2026-07-13T19:47:25.000Z</time></trkpt>
        <trkpt lat="27.8176069" lon="104.3228431"><ele>2199.81</ele><time>2026-07-13T19:47:41.000Z</time></trkpt>
        <trkpt lat="27.8175807" lon="104.3229467"><ele>2200.71</ele><time>2026-07-13T19:48:07.000Z</time></trkpt>
        <trkpt lat="27.8175379" lon="104.323035"><ele>2202.69</ele><time>2026-07-13T19:48:27.000Z</time></trkpt>
        <trkpt lat="27.8174817" lon="104.3231246"><ele>2204.33</ele><time>2026-07-13T19:48:49.000Z</time></trkpt>
        <trkpt lat="27.8174352" lon="104.3232304"><ele>2204.62</ele><time>2026-07-13T19:49:15.000Z</time></trkpt>
        <trkpt lat="27.8173991" lon="104.3233434"><ele>2205.25</ele><time>2026-07-13T19:49:45.000Z</time></trkpt>
        <trkpt lat="27.8173503" lon="104.3234697"><ele>2203.9</ele><time>2026-07-13T19:50:23.000Z</time></trkpt>
        <trkpt lat="27.8172799" lon="104.3235461"><ele>2202.69</ele><time>2026-07-13T19:50:39.000Z</time></trkpt>
        <trkpt lat="27.8171643" lon="104.3236195"><ele>2201.66</ele><time>2026-07-13T19:51:21.000Z</time></trkpt>
        <trkpt lat="27.8170611" lon="104.323655"><ele>2202.02</ele><time>2026-07-13T19:52:01.000Z</time></trkpt>
        <trkpt lat="27.816972" lon="104.3237043"><ele>2199.26</ele><time>2026-07-13T19:52:27.000Z</time></trkpt>
        <trkpt lat="27.8168927" lon="104.3237639"><ele>2196.4</ele><time>2026-07-13T19:52:49.000Z</time></trkpt>
        <trkpt lat="27.816823" lon="104.3238342"><ele>2193.52</ele><time>2026-07-13T19:53:11.000Z</time></trkpt>
        <trkpt lat="27.81675" lon="104.3239245"><ele>2193.64</ele><time>2026-07-13T19:53:39.000Z</time></trkpt>
        <trkpt lat="27.8166723" lon="104.3240039"><ele>2194.01</ele><time>2026-07-13T19:54:11.000Z</time></trkpt>
        <trkpt lat="27.8166177" lon="104.3240904"><ele>2194.35</ele><time>2026-07-13T19:54:33.000Z</time></trkpt>
        <trkpt lat="27.8165366" lon="104.324133"><ele>2194.89</ele><time>2026-07-13T19:54:55.000Z</time></trkpt>
        <trkpt lat="27.8164571" lon="104.3241816"><ele>2195.28</ele><time>2026-07-13T19:55:11.000Z</time></trkpt>
        <trkpt lat="27.8163765" lon="104.324232"><ele>2194.9</ele><time>2026-07-13T19:55:29.000Z</time></trkpt>
        <trkpt lat="27.8162958" lon="104.3242877"><ele>2194.86</ele><time>2026-07-13T19:55:43.000Z</time></trkpt>
        <trkpt lat="27.8162366" lon="104.3243694"><ele>2194.96</ele><time>2026-07-13T19:56:01.000Z</time></trkpt>
        <trkpt lat="27.8161617" lon="104.3244304"><ele>2195.02</ele><time>2026-07-13T19:56:17.000Z</time></trkpt>
        <trkpt lat="27.816056" lon="104.32452"><ele>2195.96</ele><time>2026-07-13T19:56:55.000Z</time></trkpt>
        <trkpt lat="27.8160359" lon="104.3246241"><ele>2197.31</ele><time>2026-07-13T19:57:21.000Z</time></trkpt>
        <trkpt lat="27.8160313" lon="104.3247296"><ele>2196.88</ele><time>2026-07-13T19:57:43.000Z</time></trkpt>
        <trkpt lat="27.8160299" lon="104.3248341"><ele>2196.03</ele><time>2026-07-13T19:58:03.000Z</time></trkpt>
        <trkpt lat="27.8160081" lon="104.3249374"><ele>2194.72</ele><time>2026-07-13T19:58:17.000Z</time></trkpt>
        <trkpt lat="27.8159408" lon="104.3250135"><ele>2192.82</ele><time>2026-07-13T19:58:29.000Z</time></trkpt>
        <trkpt lat="27.8158772" lon="104.3251046"><ele>2192.3</ele><time>2026-07-13T19:58:45.000Z</time></trkpt>
        <trkpt lat="27.81581" lon="104.3251937"><ele>2191.65</ele><time>2026-07-13T19:59:03.000Z</time></trkpt>
        <trkpt lat="27.815759" lon="104.3252921"><ele>2190.94</ele><time>2026-07-13T19:59:17.000Z</time></trkpt>
        <trkpt lat="27.8156921" lon="104.325374"><ele>2189.2</ele><time>2026-07-13T19:59:33.000Z</time></trkpt>
        <trkpt lat="27.8156328" lon="104.3254618"><ele>2189.37</ele><time>2026-07-13T19:59:59.000Z</time></trkpt>
        <trkpt lat="27.815592" lon="104.3255625"><ele>2190.29</ele><time>2026-07-13T20:00:31.000Z</time></trkpt>
        <trkpt lat="27.8155383" lon="104.32565"><ele>2190.98</ele><time>2026-07-13T20:03:05.000Z</time></trkpt>
        <trkpt lat="27.8154767" lon="104.32573"><ele>2189.53</ele><time>2026-07-13T20:03:23.000Z</time></trkpt>
        <trkpt lat="27.8155583" lon="104.32578"><ele>2188.96</ele><time>2026-07-13T20:10:37.000Z</time></trkpt>
        <trkpt lat="27.8154683" lon="104.3257883"><ele>2190.61</ele><time>2026-07-13T20:16:15.000Z</time></trkpt>
        <trkpt lat="27.8154033" lon="104.3258617"><ele>2188.24</ele><time>2026-07-13T20:16:29.000Z</time></trkpt>
        <trkpt lat="27.8153242" lon="104.3259251"><ele>2187.1</ele><time>2026-07-13T20:16:45.000Z</time></trkpt>
        <trkpt lat="27.8152799" lon="104.3260216"><ele>2186.16</ele><time>2026-07-13T20:17:01.000Z</time></trkpt>
        <trkpt lat="27.8152189" lon="104.3261095"><ele>2185.14</ele><time>2026-07-13T20:17:15.000Z</time></trkpt>
        <trkpt lat="27.8151709" lon="104.326201"><ele>2184.44</ele><time>2026-07-13T20:17:29.000Z</time></trkpt>
        <trkpt lat="27.8151254" lon="104.3262922"><ele>2183.99</ele><time>2026-07-13T20:17:43.000Z</time></trkpt>
        <trkpt lat="27.815085" lon="104.3263916"><ele>2182.23</ele><time>2026-07-13T20:17:55.000Z</time></trkpt>
        <trkpt lat="27.8150436" lon="104.3265015"><ele>2181.74</ele><time>2026-07-13T20:18:07.000Z</time></trkpt>
        <trkpt lat="27.8149724" lon="104.3265682"><ele>2181.81</ele><time>2026-07-13T20:18:21.000Z</time></trkpt>
        <trkpt lat="27.8148902" lon="104.3266208"><ele>2181.46</ele><time>2026-07-13T20:18:33.000Z</time></trkpt>
        <trkpt lat="27.8148079" lon="104.3266689"><ele>2180.27</ele><time>2026-07-13T20:18:45.000Z</time></trkpt>
        <trkpt lat="27.8147219" lon="104.3267184"><ele>2178.95</ele><time>2026-07-13T20:18:57.000Z</time></trkpt>
        <trkpt lat="27.8146329" lon="104.3267508"><ele>2177.85</ele><time>2026-07-13T20:19:09.000Z</time></trkpt>
        <trkpt lat="27.8145459" lon="104.3267988"><ele>2176.63</ele><time>2026-07-13T20:19:23.000Z</time></trkpt>
        <trkpt lat="27.8144576" lon="104.3268374"><ele>2176.14</ele><time>2026-07-13T20:19:37.000Z</time></trkpt>
        <trkpt lat="27.8143564" lon="104.3268487"><ele>2175.39</ele><time>2026-07-13T20:19:49.000Z</time></trkpt>
        <trkpt lat="27.8142557" lon="104.3268316"><ele>2175.09</ele><time>2026-07-13T20:20:05.000Z</time></trkpt>
        <trkpt lat="27.8141584" lon="104.3268145"><ele>2174.19</ele><time>2026-07-13T20:20:15.000Z</time></trkpt>
        <trkpt lat="27.8140616" lon="104.3268088"><ele>2173.85</ele><time>2026-07-13T20:20:29.000Z</time></trkpt>
        <trkpt lat="27.8139699" lon="104.3267984"><ele>2173.61</ele><time>2026-07-13T20:20:43.000Z</time></trkpt>
        <trkpt lat="27.8138776" lon="104.3267877"><ele>2173.05</ele><time>2026-07-13T20:20:57.000Z</time></trkpt>
        <trkpt lat="27.8137823" lon="104.3267972"><ele>2172.43</ele><time>2026-07-13T20:21:07.000Z</time></trkpt>
        <trkpt lat="27.8136832" lon="104.3268193"><ele>2171.64</ele><time>2026-07-13T20:21:19.000Z</time></trkpt>
        <trkpt lat="27.8135904" lon="104.3268712"><ele>2171.15</ele><time>2026-07-13T20:21:33.000Z</time></trkpt>
        <trkpt lat="27.8135064" lon="104.3269391"><ele>2170.53</ele><time>2026-07-13T20:21:49.000Z</time></trkpt>
        <trkpt lat="27.813433" lon="104.327008"><ele>2170.21</ele><time>2026-07-13T20:22:01.000Z</time></trkpt>
        <trkpt lat="27.813349" lon="104.3270589"><ele>2169.82</ele><time>2026-07-13T20:22:15.000Z</time></trkpt>
        <trkpt lat="27.8132602" lon="104.3270457"><ele>2169.34</ele><time>2026-07-13T20:22:29.000Z</time></trkpt>
        <trkpt lat="27.8131699" lon="104.3270308"><ele>2169.11</ele><time>2026-07-13T20:22:51.000Z</time></trkpt>
        <trkpt lat="27.8130755" lon="104.327029"><ele>2168.85</ele><time>2026-07-13T20:23:03.000Z</time></trkpt>
        <trkpt lat="27.8129774" lon="104.3270365"><ele>2168.09</ele><time>2026-07-13T20:23:17.000Z</time></trkpt>
        <trkpt lat="27.8128808" lon="104.3270553"><ele>2167.15</ele><time>2026-07-13T20:23:29.000Z</time></trkpt>
        <trkpt lat="27.8127801" lon="104.3270716"><ele>2165.92</ele><time>2026-07-13T20:24:27.000Z</time></trkpt>
        <trkpt lat="27.8126806" lon="104.3270513"><ele>2165.23</ele><time>2026-07-13T20:24:37.000Z</time></trkpt>
        <trkpt lat="27.8125792" lon="104.3270247"><ele>2164.53</ele><time>2026-07-13T20:25:15.000Z</time></trkpt>
        <trkpt lat="27.8124836" lon="104.327004"><ele>2162.92</ele><time>2026-07-13T20:25:23.000Z</time></trkpt>
        <trkpt lat="27.8123902" lon="104.3270156"><ele>2162.23</ele><time>2026-07-13T20:25:33.000Z</time></trkpt>
        <trkpt lat="27.8122911" lon="104.327038"><ele>2161.57</ele><time>2026-07-13T20:25:43.000Z</time></trkpt>
        <trkpt lat="27.8122623" lon="104.3270504"><ele>2160.98</ele><time>2026-07-13T20:25:51.000Z</time></trkpt>
        <trkpt lat="27.8121905" lon="104.3270765"><ele>2160.9</ele><time>2026-07-13T20:26:45.000Z</time></trkpt>
        <trkpt lat="27.8121183" lon="104.3271567"><ele>2161.8</ele><time>2026-07-13T20:32:27.000Z</time></trkpt>
        <trkpt lat="27.8120167" lon="104.3271883"><ele>2161.37</ele><time>2026-07-13T20:32:47.000Z</time></trkpt>
        <trkpt lat="27.8119277" lon="104.3272383"><ele>2161.64</ele><time>2026-07-13T20:33:11.000Z</time></trkpt>
        <trkpt lat="27.8118448" lon="104.3272967"><ele>2160.68</ele><time>2026-07-13T20:33:21.000Z</time></trkpt>
        <trkpt lat="27.8117664" lon="104.3273591"><ele>2160.47</ele><time>2026-07-13T20:33:35.000Z</time></trkpt>
        <trkpt lat="27.8116956" lon="104.3274274"><ele>2160.53</ele><time>2026-07-13T20:33:47.000Z</time></trkpt>
        <trkpt lat="27.8116207" lon="104.3274872"><ele>2161.16</ele><time>2026-07-13T20:34:03.000Z</time></trkpt>
        <trkpt lat="27.8115273" lon="104.3275082"><ele>2160.79</ele><time>2026-07-13T20:34:17.000Z</time></trkpt>
        <trkpt lat="27.8114319" lon="104.3275288"><ele>2160.71</ele><time>2026-07-13T20:34:31.000Z</time></trkpt>
        <trkpt lat="27.8113393" lon="104.3275326"><ele>2161.01</ele><time>2026-07-13T20:34:47.000Z</time></trkpt>
        <trkpt lat="27.8112371" lon="104.3275403"><ele>2160.57</ele><time>2026-07-13T20:35:03.000Z</time></trkpt>
        <trkpt lat="27.8111402" lon="104.327551"><ele>2159.77</ele><time>2026-07-13T20:35:15.000Z</time></trkpt>
        <trkpt lat="27.8110434" lon="104.327552"><ele>2159.57</ele><time>2026-07-13T20:35:27.000Z</time></trkpt>
        <trkpt lat="27.8109417" lon="104.3275422"><ele>2159.02</ele><time>2026-07-13T20:35:43.000Z</time></trkpt>
        <trkpt lat="27.8108382" lon="104.3275478"><ele>2157.51</ele><time>2026-07-13T20:35:55.000Z</time></trkpt>
        <trkpt lat="27.810743" lon="104.3275437"><ele>2157.37</ele><time>2026-07-13T20:36:07.000Z</time></trkpt>
        <trkpt lat="27.8106499" lon="104.327542"><ele>2156.91</ele><time>2026-07-13T20:36:27.000Z</time></trkpt>
        <trkpt lat="27.8105585" lon="104.3275477"><ele>2156.69</ele><time>2026-07-13T20:36:41.000Z</time></trkpt>
        <trkpt lat="27.8104687" lon="104.3275875"><ele>2156.7</ele><time>2026-07-13T20:36:55.000Z</time></trkpt>
        <trkpt lat="27.8103804" lon="104.3276181"><ele>2156.65</ele><time>2026-07-13T20:37:09.000Z</time></trkpt>
        <trkpt lat="27.81028" lon="104.3276194"><ele>2155.94</ele><time>2026-07-13T20:37:23.000Z</time></trkpt>
        <trkpt lat="27.8101737" lon="104.3276183"><ele>2154.72</ele><time>2026-07-13T20:37:37.000Z</time></trkpt>
        <trkpt lat="27.8100784" lon="104.3276288"><ele>2153.42</ele><time>2026-07-13T20:37:49.000Z</time></trkpt>
        <trkpt lat="27.8099776" lon="104.3276356"><ele>2152.55</ele><time>2026-07-13T20:38:03.000Z</time></trkpt>
        <trkpt lat="27.8098833" lon="104.3276558"><ele>2151.28</ele><time>2026-07-13T20:38:17.000Z</time></trkpt>
        <trkpt lat="27.8097841" lon="104.3276786"><ele>2150.13</ele><time>2026-07-13T20:38:33.000Z</time></trkpt>
        <trkpt lat="27.809674" lon="104.3276691"><ele>2148.48</ele><time>2026-07-13T20:39:01.000Z</time></trkpt>
        <trkpt lat="27.8095713" lon="104.3276723"><ele>2146.77</ele><time>2026-07-13T20:39:19.000Z</time></trkpt>
        <trkpt lat="27.8094758" lon="104.3276541"><ele>2144.55</ele><time>2026-07-13T20:39:31.000Z</time></trkpt>
        <trkpt lat="27.8093828" lon="104.3276707"><ele>2143.32</ele><time>2026-07-13T20:39:43.000Z</time></trkpt>
        <trkpt lat="27.8092791" lon="104.3276826"><ele>2141.76</ele><time>2026-07-13T20:39:59.000Z</time></trkpt>
        <trkpt lat="27.8091785" lon="104.3276788"><ele>2141.05</ele><time>2026-07-13T20:40:19.000Z</time></trkpt>
        <trkpt lat="27.8090859" lon="104.3276728"><ele>2139.22</ele><time>2026-07-13T20:40:31.000Z</time></trkpt>
        <trkpt lat="27.8089973" lon="104.3277104"><ele>2137.79</ele><time>2026-07-13T20:40:45.000Z</time></trkpt>
        <trkpt lat="27.8089086" lon="104.3277205"><ele>2136.63</ele><time>2026-07-13T20:40:55.000Z</time></trkpt>
        <trkpt lat="27.8088169" lon="104.327721"><ele>2135.59</ele><time>2026-07-13T20:41:11.000Z</time></trkpt>
        <trkpt lat="27.8087139" lon="104.3277271"><ele>2133.7</ele><time>2026-07-13T20:41:29.000Z</time></trkpt>
        <trkpt lat="27.8086155" lon="104.3277235"><ele>2133.53</ele><time>2026-07-13T20:41:45.000Z</time></trkpt>
        <trkpt lat="27.8085195" lon="104.3277238"><ele>2133.13</ele><time>2026-07-13T20:42:05.000Z</time></trkpt>
        <trkpt lat="27.8084319" lon="104.3276937"><ele>2130.54</ele><time>2026-07-13T20:42:19.000Z</time></trkpt>
        <trkpt lat="27.8083549" lon="104.3276337"><ele>2128.2</ele><time>2026-07-13T20:42:49.000Z</time></trkpt>
        <trkpt lat="27.8082762" lon="104.327572"><ele>2123.17</ele><time>2026-07-13T20:43:13.000Z</time></trkpt>
        <trkpt lat="27.8081922" lon="104.3275311"><ele>2119.52</ele><time>2026-07-13T20:43:33.000Z</time></trkpt>
        <trkpt lat="27.8081086" lon="104.3274629"><ele>2117.71</ele><time>2026-07-13T20:43:49.000Z</time></trkpt>
        <trkpt lat="27.8080251" lon="104.3274081"><ele>2114.86</ele><time>2026-07-13T20:44:03.000Z</time></trkpt>
        <trkpt lat="27.8079392" lon="104.3273532"><ele>2112.56</ele><time>2026-07-13T20:44:53.000Z</time></trkpt>
        <trkpt lat="27.8078449" lon="104.3273371"><ele>2110.9</ele><time>2026-07-13T20:45:05.000Z</time></trkpt>
        <trkpt lat="27.8077489" lon="104.3273477"><ele>2110.55</ele><time>2026-07-13T20:45:23.000Z</time></trkpt>
        <trkpt lat="27.8076579" lon="104.3273358"><ele>2111.74</ele><time>2026-07-13T20:45:47.000Z</time></trkpt>
        <trkpt lat="27.807564" lon="104.3273181"><ele>2111.12</ele><time>2026-07-13T20:45:59.000Z</time></trkpt>
        <trkpt lat="27.8074616" lon="104.3273145"><ele>2111.2</ele><time>2026-07-13T20:46:23.000Z</time></trkpt>
        <trkpt lat="27.8073623" lon="104.3273187"><ele>2112.4</ele><time>2026-07-13T20:46:43.000Z</time></trkpt>
        <trkpt lat="27.8072685" lon="104.3273201"><ele>2112.36</ele><time>2026-07-13T20:46:59.000Z</time></trkpt>
        <trkpt lat="27.8071693" lon="104.3273173"><ele>2112.12</ele><time>2026-07-13T20:47:15.000Z</time></trkpt>
        <trkpt lat="27.8070805" lon="104.3272863"><ele>2111.94</ele><time>2026-07-13T20:47:37.000Z</time></trkpt>
        <trkpt lat="27.806993" lon="104.3272326"><ele>2111.19</ele><time>2026-07-13T20:47:53.000Z</time></trkpt>
        <trkpt lat="27.8068968" lon="104.327201"><ele>2109.69</ele><time>2026-07-13T20:48:05.000Z</time></trkpt>
        <trkpt lat="27.8068034" lon="104.3271809"><ele>2109.48</ele><time>2026-07-13T20:48:19.000Z</time></trkpt>
        <trkpt lat="27.8067063" lon="104.3271798"><ele>2109.79</ele><time>2026-07-13T20:48:35.000Z</time></trkpt>
        <trkpt lat="27.806614" lon="104.3271513"><ele>2109.62</ele><time>2026-07-13T20:48:53.000Z</time></trkpt>
        <trkpt lat="27.8065226" lon="104.3271338"><ele>2108.45</ele><time>2026-07-13T20:49:15.000Z</time></trkpt>
        <trkpt lat="27.8064275" lon="104.3271486"><ele>2107.01</ele><time>2026-07-13T20:49:33.000Z</time></trkpt>
        <trkpt lat="27.8063347" lon="104.3271789"><ele>2105.2</ele><time>2026-07-13T20:49:51.000Z</time></trkpt>
        <trkpt lat="27.8062253" lon="104.3271828"><ele>2103.05</ele><time>2026-07-13T20:50:21.000Z</time></trkpt>
        <trkpt lat="27.8061261" lon="104.3272216"><ele>2099.37</ele><time>2026-07-13T20:50:37.000Z</time></trkpt>
        <trkpt lat="27.8060253" lon="104.327211"><ele>2096.54</ele><time>2026-07-13T20:50:57.000Z</time></trkpt>
        <trkpt lat="27.8059275" lon="104.3272133"><ele>2094.89</ele><time>2026-07-13T20:51:15.000Z</time></trkpt>
        <trkpt lat="27.8058346" lon="104.3272032"><ele>2093.17</ele><time>2026-07-13T20:51:27.000Z</time></trkpt>
        <trkpt lat="27.8057421" lon="104.3271827"><ele>2091.16</ele><time>2026-07-13T20:51:41.000Z</time></trkpt>
        <trkpt lat="27.8056494" lon="104.3271517"><ele>2088.9</ele><time>2026-07-13T20:51:55.000Z</time></trkpt>
        <trkpt lat="27.8055427" lon="104.3270915"><ele>2087.14</ele><time>2026-07-13T20:52:35.000Z</time></trkpt>
        <trkpt lat="27.805447" lon="104.3270394"><ele>2085.66</ele><time>2026-07-13T20:53:03.000Z</time></trkpt>
        <trkpt lat="27.8053683" lon="104.32697"><ele>2083.27</ele><time>2026-07-13T20:55:37.000Z</time></trkpt>
        <trkpt lat="27.8053033" lon="104.326895"><ele>2078.76</ele><time>2026-07-13T20:55:59.000Z</time></trkpt>
        <trkpt lat="27.8052129" lon="104.3268426"><ele>2073.19</ele><time>2026-07-13T20:56:21.000Z</time></trkpt>
        <trkpt lat="27.8051219" lon="104.326843"><ele>2070.27</ele><time>2026-07-13T20:56:43.000Z</time></trkpt>
        <trkpt lat="27.8050281" lon="104.3268563"><ele>2068.82</ele><time>2026-07-13T20:57:03.000Z</time></trkpt>
        <trkpt lat="27.804926" lon="104.3268399"><ele>2067.78</ele><time>2026-07-13T20:57:19.000Z</time></trkpt>
        <trkpt lat="27.8048528" lon="104.3267789"><ele>2066.45</ele><time>2026-07-13T20:57:43.000Z</time></trkpt>
        <trkpt lat="27.8048208" lon="104.3266756"><ele>2062.95</ele><time>2026-07-13T20:58:17.000Z</time></trkpt>
        <trkpt lat="27.804774" lon="104.3265782"><ele>2058.71</ele><time>2026-07-13T20:58:33.000Z</time></trkpt>
        <trkpt lat="27.8047238" lon="104.3264854"><ele>2055.52</ele><time>2026-07-13T20:59:01.000Z</time></trkpt>
        <trkpt lat="27.8046767" lon="104.3263917"><ele>2052.85</ele><time>2026-07-13T21:00:17.000Z</time></trkpt>
        <trkpt lat="27.8046117" lon="104.3263133"><ele>2048.78</ele><time>2026-07-13T21:01:09.000Z</time></trkpt>
        <trkpt lat="27.8045683" lon="104.3262183"><ele>2046.12</ele><time>2026-07-13T21:09:25.000Z</time></trkpt>
        <trkpt lat="27.8044933" lon="104.3261317"><ele>2042.54</ele><time>2026-07-13T21:09:39.000Z</time></trkpt>
        <trkpt lat="27.8044226" lon="104.326045"><ele>2041.45</ele><time>2026-07-13T21:09:51.000Z</time></trkpt>
        <trkpt lat="27.8043384" lon="104.3259854"><ele>2040.61</ele><time>2026-07-13T21:10:07.000Z</time></trkpt>
        <trkpt lat="27.8042551" lon="104.3259316"><ele>2040</ele><time>2026-07-13T21:10:21.000Z</time></trkpt>
        <trkpt lat="27.8041574" lon="104.3259055"><ele>2039.83</ele><time>2026-07-13T21:10:35.000Z</time></trkpt>
        <trkpt lat="27.8040685" lon="104.3258672"><ele>2039.21</ele><time>2026-07-13T21:10:47.000Z</time></trkpt>
        <trkpt lat="27.8039962" lon="104.3258036"><ele>2039.38</ele><time>2026-07-13T21:11:01.000Z</time></trkpt>
        <trkpt lat="27.8039063" lon="104.3257665"><ele>2039.17</ele><time>2026-07-13T21:11:15.000Z</time></trkpt>
        <trkpt lat="27.8038103" lon="104.3257491"><ele>2038.67</ele><time>2026-07-13T21:11:27.000Z</time></trkpt>
        <trkpt lat="27.8037075" lon="104.325728"><ele>2038.42</ele><time>2026-07-13T21:11:39.000Z</time></trkpt>
        <trkpt lat="27.8036178" lon="104.3256802"><ele>2037.73</ele><time>2026-07-13T21:11:49.000Z</time></trkpt>
        <trkpt lat="27.8035299" lon="104.3256434"><ele>2037.07</ele><time>2026-07-13T21:12:01.000Z</time></trkpt>
        <trkpt lat="27.8034348" lon="104.3256016"><ele>2036.18</ele><time>2026-07-13T21:12:13.000Z</time></trkpt>
        <trkpt lat="27.8033518" lon="104.3255494"><ele>2034.47</ele><time>2026-07-13T21:12:23.000Z</time></trkpt>
        <trkpt lat="27.8032521" lon="104.3255311"><ele>2031.9</ele><time>2026-07-13T21:12:37.000Z</time></trkpt>
        <trkpt lat="27.8031584" lon="104.3255472"><ele>2029.1</ele><time>2026-07-13T21:12:49.000Z</time></trkpt>
        <trkpt lat="27.8030662" lon="104.3255619"><ele>2027.42</ele><time>2026-07-13T21:13:03.000Z</time></trkpt>
        <trkpt lat="27.8030662" lon="104.3255619"><ele>2027.42</ele><time>2026-07-13T21:14:49.000Z</time></trkpt>
      </trkseg>
      <trkseg>
        <trkpt lat="27.8024417" lon="104.3151717"><ele>1905.3</ele><time>2026-07-13T21:51:51.000Z</time></trkpt>
        <trkpt lat="27.8024417" lon="104.3151717"><ele>1905.3</ele><time>2026-07-13T21:51:55.000Z</time></trkpt>
        <trkpt lat="27.8024883" lon="104.3150717"><ele>1905.3</ele><time>2026-07-13T21:52:30.000Z</time></trkpt>
        <trkpt lat="27.8025533" lon="104.3149956"><ele>1942.72</ele><time>2026-07-13T21:53:02.000Z</time></trkpt>
        <trkpt lat="27.802628" lon="104.3150371"><ele>1964.57</ele><time>2026-07-13T21:53:14.000Z</time></trkpt>
        <trkpt lat="27.8027121" lon="104.315084"><ele>1976.45</ele><time>2026-07-13T21:53:24.000Z</time></trkpt>
        <trkpt lat="27.8028027" lon="104.3151516"><ele>1981.64</ele><time>2026-07-13T21:53:36.000Z</time></trkpt>
        <trkpt lat="27.8028836" lon="104.3152205"><ele>1984.33</ele><time>2026-07-13T21:53:48.000Z</time></trkpt>
        <trkpt lat="27.80298" lon="104.3152266"><ele>1985.35</ele><time>2026-07-13T21:53:58.000Z</time></trkpt>
        <trkpt lat="27.8030696" lon="104.3152642"><ele>1986.02</ele><time>2026-07-13T21:54:10.000Z</time></trkpt>
        <trkpt lat="27.8031434" lon="104.315327"><ele>1987.3</ele><time>2026-07-13T21:54:22.000Z</time></trkpt>
        <trkpt lat="27.8032301" lon="104.3153435"><ele>1987.64</ele><time>2026-07-13T21:54:36.000Z</time></trkpt>
        <trkpt lat="27.8032998" lon="104.3152839"><ele>1988.18</ele><time>2026-07-13T21:54:51.000Z</time></trkpt>
        <trkpt lat="27.8033492" lon="104.3151882"><ele>1989.95</ele><time>2026-07-13T21:55:02.000Z</time></trkpt>
        <trkpt lat="27.8033771" lon="104.3150781"><ele>1990.79</ele><time>2026-07-13T21:55:12.000Z</time></trkpt>
        <trkpt lat="27.8034473" lon="104.3150149"><ele>1992.6</ele><time>2026-07-13T21:55:26.000Z</time></trkpt>
        <trkpt lat="27.8035452" lon="104.3149772"><ele>1993.25</ele><time>2026-07-13T21:55:38.000Z</time></trkpt>
        <trkpt lat="27.803648" lon="104.3149931"><ele>1993.18</ele><time>2026-07-13T21:55:50.000Z</time></trkpt>
        <trkpt lat="27.8037443" lon="104.3149953"><ele>1992.12</ele><time>2026-07-13T21:56:02.000Z</time></trkpt>
        <trkpt lat="27.8038342" lon="104.3149736"><ele>1991.42</ele><time>2026-07-13T21:56:14.000Z</time></trkpt>
        <trkpt lat="27.8039263" lon="104.3149682"><ele>1990.25</ele><time>2026-07-13T21:56:24.000Z</time></trkpt>
        <trkpt lat="27.804017" lon="104.3149593"><ele>1989.67</ele><time>2026-07-13T21:56:40.000Z</time></trkpt>
        <trkpt lat="27.8041096" lon="104.3149899"><ele>1988.87</ele><time>2026-07-13T21:56:54.000Z</time></trkpt>
        <trkpt lat="27.8042054" lon="104.314991"><ele>1988.19</ele><time>2026-07-13T21:57:06.000Z</time></trkpt>
        <trkpt lat="27.8043048" lon="104.3150191"><ele>1987.64</ele><time>2026-07-13T21:57:18.000Z</time></trkpt>
        <trkpt lat="27.8044" lon="104.3149083"><ele>1988.44</ele><time>2026-07-13T21:59:48.000Z</time></trkpt>
        <trkpt lat="27.804505" lon="104.3148833"><ele>1989.84</ele><time>2026-07-13T22:06:27.000Z</time></trkpt>
        <trkpt lat="27.8046" lon="104.3148667"><ele>1990.77</ele><time>2026-07-13T22:06:47.000Z</time></trkpt>
        <trkpt lat="27.8046908" lon="104.3148796"><ele>1990.05</ele><time>2026-07-13T22:07:01.000Z</time></trkpt>
        <trkpt lat="27.8047924" lon="104.3148656"><ele>1988.74</ele><time>2026-07-13T22:07:19.000Z</time></trkpt>
        <trkpt lat="27.8048835" lon="104.3148121"><ele>1988.85</ele><time>2026-07-13T22:07:42.000Z</time></trkpt>
        <trkpt lat="27.8049619" lon="104.3147459"><ele>1991.02</ele><time>2026-07-13T22:07:57.000Z</time></trkpt>
        <trkpt lat="27.8050484" lon="104.3147463"><ele>1992.73</ele><time>2026-07-13T22:08:09.000Z</time></trkpt>
        <trkpt lat="27.8051375" lon="104.3147781"><ele>1994.96</ele><time>2026-07-13T22:08:21.000Z</time></trkpt>
        <trkpt lat="27.8052276" lon="104.3148101"><ele>1996.48</ele><time>2026-07-13T22:08:33.000Z</time></trkpt>
        <trkpt lat="27.8053191" lon="104.3148341"><ele>1997.69</ele><time>2026-07-13T22:08:45.000Z</time></trkpt>
        <trkpt lat="27.8054123" lon="104.3148322"><ele>1996.92</ele><time>2026-07-13T22:08:55.000Z</time></trkpt>
        <trkpt lat="27.8055072" lon="104.3148455"><ele>1997.3</ele><time>2026-07-13T22:09:09.000Z</time></trkpt>
        <trkpt lat="27.8056467" lon="104.314825"><ele>1998.42</ele><time>2026-07-13T22:10:11.000Z</time></trkpt>
        <trkpt lat="27.8057433" lon="104.3148217"><ele>2000.22</ele><time>2026-07-13T22:10:25.000Z</time></trkpt>
        <trkpt lat="27.8058188" lon="104.3148747"><ele>1999.39</ele><time>2026-07-13T22:10:45.000Z</time></trkpt>
        <trkpt lat="27.8058958" lon="104.3149327"><ele>1998.06</ele><time>2026-07-13T22:11:03.000Z</time></trkpt>
        <trkpt lat="27.8059717" lon="104.3149899"><ele>1996.14</ele><time>2026-07-13T22:11:27.000Z</time></trkpt>
        <trkpt lat="27.8060451" lon="104.3150572"><ele>1995.05</ele><time>2026-07-13T22:11:41.000Z</time></trkpt>
        <trkpt lat="27.8061279" lon="104.3151187"><ele>1994</ele><time>2026-07-13T22:11:53.000Z</time></trkpt>
        <trkpt lat="27.8062193" lon="104.3151945"><ele>1992.71</ele><time>2026-07-13T22:12:43.000Z</time></trkpt>
        <trkpt lat="27.8063149" lon="104.3152341"><ele>1993.35</ele><time>2026-07-13T22:13:07.000Z</time></trkpt>
        <trkpt lat="27.8064112" lon="104.3152708"><ele>1993.84</ele><time>2026-07-13T22:13:23.000Z</time></trkpt>
        <trkpt lat="27.806506" lon="104.3152816"><ele>1993.65</ele><time>2026-07-13T22:13:37.000Z</time></trkpt>
        <trkpt lat="27.80661" lon="104.315279"><ele>1993.89</ele><time>2026-07-13T22:13:51.000Z</time></trkpt>
        <trkpt lat="27.8067096" lon="104.315252"><ele>1994.88</ele><time>2026-07-13T22:14:01.000Z</time></trkpt>
        <trkpt lat="27.8068034" lon="104.3152317"><ele>1996.35</ele><time>2026-07-13T22:14:53.000Z</time></trkpt>
        <trkpt lat="27.8067433" lon="104.3151367"><ele>1997.96</ele><time>2026-07-13T22:19:39.000Z</time></trkpt>
        <trkpt lat="27.8067917" lon="104.3152233"><ele>1997.64</ele><time>2026-07-13T22:21:13.000Z</time></trkpt>
        <trkpt lat="27.8067017" lon="104.3152483"><ele>1997.84</ele><time>2026-07-13T22:21:31.000Z</time></trkpt>
        <trkpt lat="27.8066117" lon="104.3152733"><ele>1996.79</ele><time>2026-07-13T22:21:54.000Z</time></trkpt>
        <trkpt lat="27.8064869" lon="104.3152649"><ele>1997.09</ele><time>2026-07-13T22:22:29.000Z</time></trkpt>
        <trkpt lat="27.8063689" lon="104.315251"><ele>1997.31</ele><time>2026-07-13T22:22:41.000Z</time></trkpt>
        <trkpt lat="27.8062668" lon="104.3152261"><ele>1995.89</ele><time>2026-07-13T22:22:57.000Z</time></trkpt>
        <trkpt lat="27.8061411" lon="104.3151358"><ele>1994.26</ele><time>2026-07-13T22:23:57.000Z</time></trkpt>
        <trkpt lat="27.8060401" lon="104.3150805"><ele>1995.05</ele><time>2026-07-13T22:24:13.000Z</time></trkpt>
        <trkpt lat="27.8059604" lon="104.3150171"><ele>1995.24</ele><time>2026-07-13T22:24:33.000Z</time></trkpt>
        <trkpt lat="27.8058876" lon="104.3149437"><ele>1994.45</ele><time>2026-07-13T22:24:47.000Z</time></trkpt>
        <trkpt lat="27.8058082" lon="104.3148797"><ele>1995.07</ele><time>2026-07-13T22:25:07.000Z</time></trkpt>
        <trkpt lat="27.805729" lon="104.3148188"><ele>1995.64</ele><time>2026-07-13T22:25:21.000Z</time></trkpt>
        <trkpt lat="27.8056107" lon="104.3148003"><ele>1996.31</ele><time>2026-07-13T22:25:47.000Z</time></trkpt>
        <trkpt lat="27.8055068" lon="104.3147959"><ele>1996.95</ele><time>2026-07-13T22:26:11.000Z</time></trkpt>
        <trkpt lat="27.8054127" lon="104.314818"><ele>1997.02</ele><time>2026-07-13T22:26:29.000Z</time></trkpt>
        <trkpt lat="27.8053175" lon="104.3148101"><ele>1996.45</ele><time>2026-07-13T22:26:43.000Z</time></trkpt>
        <trkpt lat="27.805219" lon="104.3148301"><ele>1996.77</ele><time>2026-07-13T22:26:59.000Z</time></trkpt>
        <trkpt lat="27.8051154" lon="104.3148217"><ele>1997.13</ele><time>2026-07-13T22:27:19.000Z</time></trkpt>
        <trkpt lat="27.8050263" lon="104.3147715"><ele>1994.41</ele><time>2026-07-13T22:27:29.000Z</time></trkpt>
        <trkpt lat="27.804929" lon="104.3147369"><ele>1993.89</ele><time>2026-07-13T22:27:45.000Z</time></trkpt>
        <trkpt lat="27.804847" lon="104.3147709"><ele>1994.11</ele><time>2026-07-13T22:28:03.000Z</time></trkpt>
        <trkpt lat="27.8047594" lon="104.314828"><ele>1995.01</ele><time>2026-07-13T22:28:27.000Z</time></trkpt>
        <trkpt lat="27.8046326" lon="104.3148776"><ele>1996.34</ele><time>2026-07-13T22:29:21.000Z</time></trkpt>
        <trkpt lat="27.8045278" lon="104.31487"><ele>1993.53</ele><time>2026-07-13T22:29:33.000Z</time></trkpt>
        <trkpt lat="27.8044193" lon="104.3148941"><ele>1992.01</ele><time>2026-07-13T22:30:07.000Z</time></trkpt>
        <trkpt lat="27.8043481" lon="104.3149749"><ele>1991.57</ele><time>2026-07-13T22:30:23.000Z</time></trkpt>
        <trkpt lat="27.8042595" lon="104.3149996"><ele>1991.76</ele><time>2026-07-13T22:30:43.000Z</time></trkpt>
        <trkpt lat="27.804165" lon="104.3150117"><ele>1992.08</ele><time>2026-07-13T22:31:07.000Z</time></trkpt>
        <trkpt lat="27.8040708" lon="104.3149967"><ele>1994.58</ele><time>2026-07-13T22:31:25.000Z</time></trkpt>
        <trkpt lat="27.8039782" lon="104.314992"><ele>1996.4</ele><time>2026-07-13T22:31:45.000Z</time></trkpt>
        <trkpt lat="27.8038876" lon="104.3149858"><ele>1996.74</ele><time>2026-07-13T22:32:03.000Z</time></trkpt>
        <trkpt lat="27.8037977" lon="104.3149959"><ele>1997.89</ele><time>2026-07-13T22:32:15.000Z</time></trkpt>
        <trkpt lat="27.8037067" lon="104.3149999"><ele>1998.19</ele><time>2026-07-13T22:32:27.000Z</time></trkpt>
        <trkpt lat="27.8036102" lon="104.3150184"><ele>1997.89</ele><time>2026-07-13T22:32:43.000Z</time></trkpt>
        <trkpt lat="27.8035116" lon="104.3150173"><ele>1997.85</ele><time>2026-07-13T22:32:55.000Z</time></trkpt>
        <trkpt lat="27.8034189" lon="104.3150269"><ele>1998.3</ele><time>2026-07-13T22:33:11.000Z</time></trkpt>
        <trkpt lat="27.8033487" lon="104.3150911"><ele>1999.46</ele><time>2026-07-13T22:33:27.000Z</time></trkpt>
        <trkpt lat="27.803304" lon="104.3151964"><ele>1999.39</ele><time>2026-07-13T22:33:39.000Z</time></trkpt>
        <trkpt lat="27.803241" lon="104.3152797"><ele>1999.22</ele><time>2026-07-13T22:33:55.000Z</time></trkpt>
        <trkpt lat="27.8031667" lon="104.3153574"><ele>1999.47</ele><time>2026-07-13T22:34:09.000Z</time></trkpt>
        <trkpt lat="27.8030869" lon="104.3153245"><ele>1998.88</ele><time>2026-07-13T22:34:23.000Z</time></trkpt>
        <trkpt lat="27.8030045" lon="104.3152609"><ele>1999.1</ele><time>2026-07-13T22:34:37.000Z</time></trkpt>
        <trkpt lat="27.8029141" lon="104.3152461"><ele>1998.67</ele><time>2026-07-13T22:34:53.000Z</time></trkpt>
        <trkpt lat="27.8028251" lon="104.3152151"><ele>1996.83</ele><time>2026-07-13T22:35:11.000Z</time></trkpt>
        <trkpt lat="27.8027435" lon="104.3151605"><ele>1995.23</ele><time>2026-07-13T22:35:25.000Z</time></trkpt>
        <trkpt lat="27.8026561" lon="104.3151069"><ele>1993.54</ele><time>2026-07-13T22:35:41.000Z</time></trkpt>
        <trkpt lat="27.8025714" lon="104.3150492"><ele>1993.05</ele><time>2026-07-13T22:35:55.000Z</time></trkpt>
        <trkpt lat="27.8024753" lon="104.3150621"><ele>1992.43</ele><time>2026-07-13T22:36:19.000Z</time></trkpt>
        <trkpt lat="27.8023875" lon="104.3151242"><ele>1993.23</ele><time>2026-07-13T22:36:51.000Z</time></trkpt>
        <trkpt lat="27.8023875" lon="104.3151242"><ele>1993.23</ele><time>2026-07-13T22:48:17.000Z</time></trkpt>
      </trkseg>
  </trk>
</gpx>